createdAt,value
2022-11-05T00:00:27.579Z,0.00
2022-11-05T00:01:27.619Z,0.00
2022-11-05T00:02:27.552Z,0.00
2022-11-05T00:03:27.604Z,0.00
2022-11-05T00:04:30.873Z,0.00
2022-11-05T00:05:27.522Z,0.00
2022-11-05T00:06:27.524Z,0.00
2022-11-05T00:07:27.508Z,0.00
2022-11-05T00:08:27.487Z,0.00
2022-11-05T00:09:27.480Z,0.00
2022-11-05T00:10:27.469Z,0.00
2022-11-05T00:11:27.471Z,0.00
2022-11-05T00:12:27.449Z,0.00
2022-11-05T00:13:27.442Z,0.00
2022-11-05T00:14:27.432Z,0.00
2022-11-05T00:15:27.428Z,0.00
2022-11-05T00:16:27.418Z,0.00
2022-11-05T00:17:27.398Z,0.00
2022-11-05T00:18:27.387Z,0.00
2022-11-05T00:19:27.378Z,0.00
2022-11-05T00:20:27.375Z,0.00
2022-11-05T00:21:27.368Z,0.00
2022-11-05T00:22:27.340Z,0.00
2022-11-05T00:23:27.343Z,0.00
2022-11-05T00:24:27.319Z,0.00
2022-11-05T00:25:27.324Z,0.00
2022-11-05T00:26:27.309Z,0.00
2022-11-05T00:27:27.311Z,0.00
2022-11-05T00:28:27.278Z,0.00
2022-11-05T00:29:27.269Z,0.00
2022-11-05T00:30:27.257Z,0.00
2022-11-05T00:31:27.251Z,0.00
2022-11-05T00:32:27.239Z,0.00
2022-11-05T00:33:27.254Z,0.00
2022-11-05T00:34:27.215Z,0.00
2022-11-05T00:35:27.209Z,0.00
2022-11-05T00:36:27.194Z,0.00
2022-11-05T00:37:27.186Z,0.00
2022-11-05T00:38:27.173Z,0.00
2022-11-05T00:39:27.173Z,0.00
2022-11-05T00:40:27.151Z,0.00
2022-11-05T00:41:27.149Z,0.00
2022-11-05T00:42:27.129Z,0.00
2022-11-05T00:43:27.124Z,0.00
2022-11-05T00:44:27.118Z,0.00
2022-11-05T00:45:27.113Z,0.00
2022-11-05T00:46:27.115Z,0.00
2022-11-05T00:47:27.092Z,0.00
2022-11-05T00:48:27.077Z,0.00
2022-11-05T00:49:27.091Z,0.00
2022-11-05T00:50:27.056Z,0.00
2022-11-05T00:51:27.040Z,0.00
2022-11-05T00:52:27.028Z,0.00
2022-11-05T00:53:27.015Z,0.00
2022-11-05T00:54:27.023Z,0.00
2022-11-05T00:55:26.995Z,0.00
2022-11-05T00:56:26.984Z,0.00
2022-11-05T00:57:26.973Z,0.00
2022-11-05T00:58:26.968Z,0.00
2022-11-05T00:59:26.954Z,0.00
2022-11-05T01:00:26.955Z,0.00
2022-11-05T01:01:27.087Z,0.00
2022-11-05T01:02:27.049Z,0.00
2022-11-05T01:03:26.912Z,0.00
2022-11-05T01:04:26.907Z,0.00
2022-11-05T01:05:26.896Z,0.00
2022-11-05T01:06:26.877Z,0.00
2022-11-05T01:07:26.875Z,0.00
2022-11-05T01:08:26.856Z,0.00
2022-11-05T01:09:26.863Z,0.00
2022-11-05T01:10:26.839Z,0.00
2022-11-05T01:11:26.847Z,0.00
2022-11-05T01:12:26.816Z,0.00
2022-11-05T01:13:26.805Z,0.00
2022-11-05T01:14:26.793Z,0.00
2022-11-05T01:15:26.787Z,0.00
2022-11-05T01:16:26.770Z,0.00
2022-11-05T01:17:26.775Z,0.00
2022-11-05T01:18:26.751Z,0.00
2022-11-05T01:19:26.744Z,0.00
2022-11-05T01:20:26.733Z,0.00
2022-11-05T01:21:26.745Z,0.00
2022-11-05T01:22:26.708Z,0.00
2022-11-05T01:23:26.701Z,0.00
2022-11-05T01:24:26.689Z,0.00
2022-11-05T01:25:26.678Z,0.00
2022-11-05T01:26:26.668Z,0.00
2022-11-05T01:27:26.677Z,0.00
2022-11-05T01:28:26.675Z,0.00
2022-11-05T01:29:26.637Z,0.00
2022-11-05T01:30:26.627Z,0.00
2022-11-05T01:31:26.618Z,0.00
2022-11-05T01:32:26.628Z,0.00
2022-11-05T01:33:26.594Z,0.00
2022-11-05T01:34:26.583Z,0.00
2022-11-05T01:35:26.573Z,0.00
2022-11-05T01:36:26.572Z,0.00
2022-11-05T01:37:26.566Z,0.00
2022-11-05T01:38:26.543Z,0.00
2022-11-05T01:39:26.537Z,0.00
2022-11-05T01:40:26.519Z,0.00
2022-11-05T01:41:26.513Z,0.00
2022-11-05T01:42:26.500Z,0.00
2022-11-05T01:43:26.512Z,0.00
2022-11-05T01:44:26.477Z,0.00
2022-11-05T01:45:26.492Z,0.00
2022-11-05T01:46:26.458Z,0.00
2022-11-05T01:47:26.447Z,0.00
2022-11-05T01:48:26.434Z,0.00
2022-11-05T01:49:26.443Z,0.00
2022-11-05T01:50:26.421Z,0.00
2022-11-05T01:51:26.410Z,0.00
2022-11-05T01:52:26.394Z,0.00
2022-11-05T01:53:26.395Z,0.00
2022-11-05T01:54:26.374Z,0.00
2022-11-05T01:55:26.368Z,0.00
2022-11-05T01:56:26.352Z,0.00
2022-11-05T01:57:26.344Z,0.00
2022-11-05T01:58:26.327Z,0.00
2022-11-05T01:59:26.328Z,0.00
2022-11-05T02:00:26.318Z,0.00
2022-11-05T02:01:26.451Z,0.00
2022-11-05T02:02:26.396Z,0.00
2022-11-05T02:03:26.279Z,0.00
2022-11-05T02:04:26.266Z,0.00
2022-11-05T02:05:26.270Z,0.00
2022-11-05T02:06:26.247Z,0.00
2022-11-05T02:07:26.244Z,0.00
2022-11-05T02:08:26.225Z,0.00
2022-11-05T02:09:26.217Z,0.00
2022-11-05T02:10:26.214Z,0.00
2022-11-05T02:11:26.207Z,0.00
2022-11-05T02:12:26.195Z,0.00
2022-11-05T02:13:26.175Z,0.00
2022-11-05T02:14:26.170Z,0.00
2022-11-05T02:15:26.152Z,0.00
2022-11-05T02:16:26.140Z,0.00
2022-11-05T02:17:26.150Z,0.00
2022-11-05T02:18:26.139Z,0.00
2022-11-05T02:19:26.110Z,0.00
2022-11-05T02:20:26.098Z,0.00
2022-11-05T02:21:26.093Z,0.00
2022-11-05T02:22:26.078Z,0.00
2022-11-05T02:23:26.081Z,0.00
2022-11-05T02:24:26.056Z,0.00
2022-11-05T02:25:26.052Z,0.00
2022-11-05T02:26:26.034Z,0.00
2022-11-05T02:27:26.051Z,0.00
2022-11-05T02:28:26.013Z,0.00
2022-11-05T02:29:26.005Z,0.00
2022-11-05T02:30:25.989Z,0.00
2022-11-05T02:31:25.986Z,0.00
2022-11-05T02:32:25.973Z,0.00
2022-11-05T02:33:25.979Z,0.00
2022-11-05T02:34:25.952Z,0.00
2022-11-05T02:35:25.953Z,0.00
2022-11-05T02:36:25.931Z,0.00
2022-11-05T02:37:25.921Z,0.00
2022-11-05T02:38:25.920Z,0.00
2022-11-05T02:39:25.900Z,0.00
2022-11-05T02:40:25.899Z,0.00
2022-11-05T02:41:25.883Z,0.00
2022-11-05T02:42:25.862Z,0.00
2022-11-05T02:43:25.855Z,0.00
2022-11-05T02:44:25.929Z,0.00
2022-11-05T02:45:25.838Z,0.00
2022-11-05T02:46:25.824Z,0.00
2022-11-05T02:47:25.819Z,0.00
2022-11-05T02:48:25.803Z,0.00
2022-11-05T02:49:25.807Z,0.00
2022-11-05T02:50:25.781Z,0.00
2022-11-05T02:51:25.774Z,0.00
2022-11-05T02:52:25.759Z,0.00
2022-11-05T02:53:25.755Z,0.00
2022-11-05T02:54:25.752Z,0.00
2022-11-05T02:55:25.734Z,0.00
2022-11-05T02:56:25.729Z,0.00
2022-11-05T02:57:25.728Z,0.00
2022-11-05T02:58:25.695Z,0.00
2022-11-05T02:59:25.698Z,0.00
2022-11-05T03:00:25.694Z,0.00
2022-11-05T03:01:25.770Z,0.00
2022-11-05T03:02:25.895Z,0.00
2022-11-05T03:03:25.647Z,0.00
2022-11-05T03:04:25.641Z,0.00
2022-11-05T03:05:25.627Z,0.00
2022-11-05T03:06:25.630Z,0.00
2022-11-05T03:07:25.609Z,0.00
2022-11-05T03:08:25.596Z,0.00
2022-11-05T03:09:25.585Z,0.00
2022-11-05T03:10:25.568Z,0.00
2022-11-05T03:11:25.574Z,0.00
2022-11-05T03:12:25.565Z,0.00
2022-11-05T03:13:25.542Z,0.00
2022-11-05T03:14:25.532Z,0.00
2022-11-05T03:15:25.522Z,0.00
2022-11-05T03:16:25.521Z,0.00
2022-11-05T03:17:25.499Z,0.00
2022-11-05T03:18:25.496Z,0.00
2022-11-05T03:19:25.481Z,0.00
2022-11-05T03:20:25.469Z,0.00
2022-11-05T03:21:25.458Z,0.00
2022-11-05T03:22:25.441Z,0.00
2022-11-05T03:23:25.445Z,0.00
2022-11-05T03:24:25.422Z,0.00
2022-11-05T03:25:25.416Z,0.00
2022-11-05T03:26:25.402Z,0.00
2022-11-05T03:27:25.396Z,0.00
2022-11-05T03:28:25.409Z,0.00
2022-11-05T03:29:25.412Z,0.00
2022-11-05T03:30:25.364Z,0.00
2022-11-05T03:31:25.351Z,0.00
2022-11-05T03:32:25.337Z,0.00
2022-11-05T03:33:25.334Z,0.00
2022-11-05T03:34:25.331Z,0.00
2022-11-05T03:35:25.310Z,0.00
2022-11-05T03:36:25.294Z,0.00
2022-11-05T03:37:25.299Z,0.00
2022-11-05T03:38:25.275Z,0.00
2022-11-05T03:39:25.266Z,0.00
2022-11-05T03:40:25.264Z,0.00
2022-11-05T03:41:25.245Z,0.00
2022-11-05T03:42:25.235Z,0.00
2022-11-05T03:43:25.222Z,0.00
2022-11-05T03:44:25.215Z,0.00
2022-11-05T03:45:25.208Z,0.00
2022-11-05T03:46:25.194Z,0.00
2022-11-05T03:47:25.189Z,0.00
2022-11-05T03:48:25.247Z,0.00
2022-11-05T03:49:25.165Z,0.00
2022-11-05T03:50:25.172Z,0.00
2022-11-05T03:51:25.135Z,0.00
2022-11-05T03:52:25.132Z,0.00
2022-11-05T03:53:25.120Z,0.00
2022-11-05T03:54:25.119Z,0.00
2022-11-05T03:55:25.116Z,0.00
2022-11-05T03:56:25.092Z,0.00
2022-11-05T03:57:25.079Z,0.00
2022-11-05T03:58:25.074Z,0.00
2022-11-05T03:59:25.061Z,0.00
2022-11-05T04:00:25.069Z,0.00
2022-11-05T04:01:25.089Z,0.00
2022-11-05T04:02:25.160Z,0.00
2022-11-05T04:03:25.019Z,0.00
2022-11-05T04:04:25.004Z,0.00
2022-11-05T04:05:24.988Z,0.00
2022-11-05T04:06:24.987Z,0.00
2022-11-05T04:07:24.981Z,0.00
2022-11-05T04:08:24.965Z,0.00
2022-11-05T04:09:24.949Z,0.00
2022-11-05T04:10:24.939Z,0.00
2022-11-05T04:11:24.929Z,0.00
2022-11-05T04:12:24.930Z,0.00
2022-11-05T04:13:24.904Z,0.00
2022-11-05T04:14:24.896Z,0.00
2022-11-05T04:15:24.886Z,0.00
2022-11-05T04:16:24.878Z,0.00
2022-11-05T04:17:24.877Z,0.00
2022-11-05T04:18:24.863Z,0.00
2022-11-05T04:19:26.268Z,0.00
2022-11-05T04:20:24.844Z,0.00
2022-11-05T04:21:24.821Z,0.00
2022-11-05T04:22:24.815Z,0.00
2022-11-05T04:23:24.814Z,0.00
2022-11-05T04:24:24.791Z,0.00
2022-11-05T04:25:24.781Z,0.00
2022-11-05T04:26:24.776Z,0.00
2022-11-05T04:27:24.757Z,0.00
2022-11-05T04:28:24.763Z,0.00
2022-11-05T04:29:24.735Z,0.00
2022-11-05T04:30:24.728Z,0.00
2022-11-05T04:31:24.722Z,0.00
2022-11-05T04:32:24.710Z,0.00
2022-11-05T04:33:24.692Z,0.00
2022-11-05T04:34:24.698Z,0.00
2022-11-05T04:35:24.680Z,0.00
2022-11-05T04:36:24.665Z,0.00
2022-11-05T04:37:24.652Z,0.00
2022-11-05T04:38:24.658Z,0.00
2022-11-05T04:39:24.630Z,0.00
2022-11-05T04:40:24.632Z,0.00
2022-11-05T04:41:24.609Z,0.00
2022-11-05T04:42:24.603Z,0.00
2022-11-05T04:43:24.593Z,0.00
2022-11-05T04:44:24.590Z,0.00
2022-11-05T04:45:24.567Z,0.00
2022-11-05T04:46:24.560Z,0.00
2022-11-05T04:47:24.546Z,0.00
2022-11-05T04:48:24.540Z,0.00
2022-11-05T04:49:24.546Z,0.00
2022-11-05T04:50:24.525Z,0.00
2022-11-05T04:51:24.504Z,0.00
2022-11-05T04:52:24.497Z,0.00
2022-11-05T04:53:24.490Z,0.00
2022-11-05T04:54:24.473Z,0.00
2022-11-05T04:55:24.471Z,0.00
2022-11-05T04:56:24.457Z,0.00
2022-11-05T04:57:24.447Z,0.00
2022-11-05T04:58:24.432Z,0.00
2022-11-05T04:59:24.422Z,0.00
2022-11-05T05:00:24.429Z,0.00
2022-11-05T05:01:24.495Z,0.00
2022-11-05T05:02:24.395Z,0.00
2022-11-05T05:03:24.383Z,0.00
2022-11-05T05:04:24.368Z,0.00
2022-11-05T05:05:24.367Z,0.00
2022-11-05T05:06:24.357Z,0.00
2022-11-05T05:07:24.338Z,0.00
2022-11-05T05:08:24.333Z,0.00
2022-11-05T05:09:24.316Z,0.00
2022-11-05T05:10:24.307Z,0.00
2022-11-05T05:11:24.293Z,0.00
2022-11-05T05:12:24.295Z,0.00
2022-11-05T05:13:24.272Z,0.00
2022-11-05T05:14:24.262Z,0.00
2022-11-05T05:15:24.258Z,0.00
2022-11-05T05:16:24.244Z,0.00
2022-11-05T05:17:24.239Z,0.00
2022-11-05T05:18:24.242Z,0.00
2022-11-05T05:19:24.210Z,0.00
2022-11-05T05:20:24.212Z,0.00
2022-11-05T05:21:24.188Z,0.00
2022-11-05T05:22:24.200Z,0.00
2022-11-05T05:23:24.167Z,0.00
2022-11-05T05:24:24.174Z,0.00
2022-11-05T05:25:24.148Z,0.00
2022-11-05T05:26:24.219Z,0.00
2022-11-05T05:27:24.128Z,0.00
2022-11-05T05:28:24.114Z,0.00
2022-11-05T05:29:24.109Z,0.00
2022-11-05T05:30:24.112Z,0.00
2022-11-05T05:31:24.084Z,0.00
2022-11-05T05:32:24.082Z,0.00
2022-11-05T05:33:24.080Z,0.00
2022-11-05T05:34:24.056Z,0.00
2022-11-05T05:35:24.043Z,0.00
2022-11-05T05:36:24.037Z,0.00
2022-11-05T05:37:24.022Z,0.00
2022-11-05T05:38:24.010Z,0.00
2022-11-05T05:39:24.005Z,0.00
2022-11-05T05:40:23.988Z,0.00
2022-11-05T05:41:23.985Z,0.00
2022-11-05T05:42:23.971Z,0.00
2022-11-05T05:43:23.953Z,0.00
2022-11-05T05:44:23.958Z,0.00
2022-11-05T05:45:23.937Z,0.00
2022-11-05T05:46:23.928Z,0.00
2022-11-05T05:47:23.919Z,0.00
2022-11-05T05:48:23.906Z,0.00
2022-11-05T05:49:23.849Z,1.00
2022-11-05T05:50:23.883Z,0.00
2022-11-05T05:51:23.873Z,0.00
2022-11-05T05:52:23.865Z,0.00
2022-11-05T05:53:23.806Z,1.00
2022-11-05T05:54:27.696Z,1.00
2022-11-05T05:55:23.790Z,1.00
2022-11-05T05:56:23.825Z,0.00
2022-11-05T05:57:23.809Z,0.00
2022-11-05T05:58:23.756Z,2.00
2022-11-05T05:59:23.734Z,1.00
2022-11-05T06:00:23.766Z,1.00
2022-11-05T06:01:23.774Z,1.00
2022-11-05T06:02:23.877Z,0.00
2022-11-05T06:03:23.748Z,0.00
2022-11-05T06:04:23.699Z,4.00
2022-11-05T06:05:23.671Z,4.00
2022-11-05T06:06:23.703Z,3.00
2022-11-05T06:07:23.668Z,3.00
2022-11-05T06:08:23.643Z,1.00
2022-11-05T06:09:23.631Z,5.00
2022-11-05T06:10:23.641Z,6.00
2022-11-05T06:11:23.617Z,3.00
2022-11-05T06:12:23.599Z,7.00
2022-11-05T06:13:23.588Z,6.00
2022-11-05T06:14:23.579Z,4.00
2022-11-05T06:15:23.576Z,4.00
2022-11-05T06:16:23.561Z,5.00
2022-11-05T06:17:23.563Z,4.00
2022-11-05T06:18:23.539Z,4.00
2022-11-05T06:19:23.526Z,6.00
2022-11-05T06:20:23.533Z,6.00
2022-11-05T06:21:23.502Z,7.00
2022-11-05T06:22:23.492Z,8.00
2022-11-05T06:23:23.498Z,7.00
2022-11-05T06:24:23.474Z,7.00
2022-11-05T06:25:23.460Z,9.00
2022-11-05T06:26:23.452Z,9.00
2022-11-05T06:27:23.452Z,9.00
2022-11-05T06:28:23.428Z,9.00
2022-11-05T06:29:23.433Z,9.00
2022-11-05T06:30:23.412Z,10.00
2022-11-05T06:31:23.395Z,8.00
2022-11-05T06:32:23.389Z,11.00
2022-11-05T06:33:23.375Z,11.00
2022-11-05T06:34:23.381Z,9.00
2022-11-05T06:35:23.354Z,9.00
2022-11-05T06:36:23.348Z,10.00
2022-11-05T06:37:23.330Z,11.00
2022-11-05T06:38:23.328Z,12.00
2022-11-05T06:39:23.323Z,14.00
2022-11-05T06:40:23.304Z,15.00
2022-11-05T06:41:23.288Z,17.00
2022-11-05T06:42:23.282Z,23.00
2022-11-05T06:43:23.282Z,28.00
2022-11-05T06:44:23.260Z,21.00
2022-11-05T06:45:23.249Z,22.00
2022-11-05T06:46:23.243Z,21.00
2022-11-05T06:47:23.227Z,24.00
2022-11-05T06:48:23.224Z,28.00
2022-11-05T06:49:23.226Z,32.00
2022-11-05T06:50:23.198Z,36.00
2022-11-05T06:51:23.189Z,41.00
2022-11-05T06:52:23.175Z,44.00
2022-11-05T06:53:23.170Z,45.00
2022-11-05T06:54:23.174Z,46.00
2022-11-05T06:55:23.171Z,49.00
2022-11-05T06:56:23.134Z,54.00
2022-11-05T06:57:23.128Z,57.00
2022-11-05T06:58:23.115Z,61.00
2022-11-05T06:59:23.100Z,67.00
2022-11-05T07:00:23.118Z,67.00
2022-11-05T07:01:23.173Z,70.00
2022-11-05T07:02:23.106Z,74.00
2022-11-05T07:03:23.057Z,78.00
2022-11-05T07:04:23.048Z,90.00
2022-11-05T07:05:23.052Z,95.00
2022-11-05T07:06:23.028Z,98.00
2022-11-05T07:07:23.014Z,95.00
2022-11-05T07:08:23.008Z,88.00
2022-11-05T07:09:22.996Z,92.00
2022-11-05T07:10:23.001Z,89.00
2022-11-05T07:11:22.990Z,85.00
2022-11-05T07:12:22.969Z,84.00
2022-11-05T07:13:22.950Z,87.00
2022-11-05T07:14:22.942Z,90.00
2022-11-05T07:15:22.942Z,97.00
2022-11-05T07:16:22.946Z,118.00
2022-11-05T07:17:22.911Z,124.00
2022-11-05T07:18:22.902Z,111.00
2022-11-05T07:19:22.923Z,103.00
2022-11-05T07:20:22.880Z,107.00
2022-11-05T07:21:22.894Z,102.00
2022-11-05T07:22:22.868Z,94.00
2022-11-05T07:23:22.854Z,88.00
2022-11-05T07:24:22.840Z,76.00
2022-11-05T07:25:22.823Z,67.00
2022-11-05T07:26:22.857Z,68.00
2022-11-05T07:27:22.807Z,64.00
2022-11-05T07:28:22.810Z,60.00
2022-11-05T07:29:22.785Z,64.00
2022-11-05T07:30:22.775Z,68.00
2022-11-05T07:31:22.777Z,69.00
2022-11-05T07:32:22.755Z,70.00
2022-11-05T07:33:22.745Z,74.00
2022-11-05T07:34:22.752Z,75.00
2022-11-05T07:35:22.721Z,79.00
2022-11-05T07:36:22.713Z,73.00
2022-11-05T07:37:22.697Z,68.00
2022-11-05T07:38:22.689Z,62.00
2022-11-05T07:39:22.700Z,60.00
2022-11-05T07:40:22.679Z,62.00
2022-11-05T07:41:22.655Z,61.00
2022-11-05T07:42:22.648Z,66.00
2022-11-05T07:43:22.635Z,63.00
2022-11-05T07:44:22.628Z,66.00
2022-11-05T07:45:22.625Z,72.00
2022-11-05T07:46:22.610Z,81.00
2022-11-05T07:47:22.590Z,90.00
2022-11-05T07:48:22.585Z,101.00
2022-11-05T07:49:22.589Z,111.00
2022-11-05T07:50:22.572Z,121.00
2022-11-05T07:51:22.549Z,130.00
2022-11-05T07:52:22.549Z,139.00
2022-11-05T07:53:22.528Z,148.00
2022-11-05T07:54:22.523Z,158.00
2022-11-05T07:55:22.519Z,178.00
2022-11-05T07:56:22.501Z,186.00
2022-11-05T07:57:22.492Z,177.00
2022-11-05T07:58:22.477Z,162.00
2022-11-05T07:59:22.470Z,152.00
2022-11-05T08:00:22.464Z,159.00
2022-11-05T08:01:22.596Z,170.00
2022-11-05T08:02:22.607Z,184.00
2022-11-05T08:03:22.624Z,197.00
2022-11-05T08:04:22.414Z,210.00
2022-11-05T08:05:22.419Z,220.00
2022-11-05T08:06:22.391Z,228.00
2022-11-05T08:07:22.393Z,235.00
2022-11-05T08:08:22.372Z,240.00
2022-11-05T08:09:22.365Z,250.00
2022-11-05T08:10:22.351Z,282.00
2022-11-05T08:11:22.342Z,296.00
2022-11-05T08:12:22.341Z,276.00
2022-11-05T08:13:22.323Z,251.00
2022-11-05T08:14:22.312Z,244.00
2022-11-05T08:15:22.298Z,233.00
2022-11-05T08:16:22.284Z,242.00
2022-11-05T08:17:22.288Z,254.00
2022-11-05T08:18:22.263Z,283.00
2022-11-05T08:19:22.305Z,332.00
2022-11-05T08:20:22.244Z,385.00
2022-11-05T08:21:22.236Z,423.00
2022-11-05T08:22:22.238Z,436.00
2022-11-05T08:23:22.228Z,474.00
2022-11-05T08:24:22.248Z,504.00
2022-11-05T08:25:22.196Z,527.00
2022-11-05T08:26:22.184Z,532.00
2022-11-05T08:27:22.173Z,474.00
2022-11-05T08:28:22.160Z,507.00
2022-11-05T08:29:22.160Z,464.00
2022-11-05T08:30:22.137Z,364.00
2022-11-05T08:31:22.135Z,314.00
2022-11-05T08:32:22.130Z,298.00
2022-11-05T08:33:22.125Z,286.00
2022-11-05T08:34:22.101Z,261.00
2022-11-05T08:35:22.098Z,243.00
2022-11-05T08:36:22.075Z,234.00
2022-11-05T08:37:22.067Z,236.00
2022-11-05T08:38:22.110Z,232.00
2022-11-05T08:39:22.060Z,250.00
2022-11-05T08:40:22.032Z,277.00
2022-11-05T08:41:22.024Z,274.00
2022-11-05T08:42:22.010Z,234.00
2022-11-05T08:43:22.005Z,216.00
2022-11-05T08:44:21.997Z,215.00
2022-11-05T08:45:21.979Z,214.00
2022-11-05T08:46:21.969Z,219.00
2022-11-05T08:47:21.958Z,213.00
2022-11-05T08:48:21.957Z,213.00
2022-11-05T08:49:21.972Z,190.00
2022-11-05T08:50:21.926Z,157.00
2022-11-05T08:51:21.917Z,130.00
2022-11-05T08:52:21.905Z,118.00
2022-11-05T08:53:21.913Z,130.00
2022-11-05T08:54:21.897Z,149.00
2022-11-05T08:55:21.878Z,178.00
2022-11-05T08:56:21.868Z,218.00
2022-11-05T08:57:21.852Z,264.00
2022-11-05T08:58:21.854Z,310.00
2022-11-05T08:59:21.923Z,344.00
2022-11-05T09:00:21.831Z,369.00
2022-11-05T09:01:21.915Z,397.00
2022-11-05T09:02:21.977Z,433.00
2022-11-05T09:03:21.790Z,483.00
2022-11-05T09:04:21.775Z,530.00
2022-11-05T09:05:21.781Z,573.00
2022-11-05T09:06:21.770Z,607.00
2022-11-05T09:07:21.746Z,569.00
2022-11-05T09:08:21.734Z,656.00
2022-11-05T09:09:22.718Z,573.00
2022-11-05T09:10:21.710Z,557.00
2022-11-05T09:11:21.711Z,570.00
2022-11-05T09:12:21.701Z,577.00
2022-11-05T09:13:22.109Z,599.00
2022-11-05T09:14:21.669Z,657.00
2022-11-05T09:15:21.671Z,752.00
2022-11-05T09:16:21.658Z,890.00
2022-11-05T09:17:21.646Z,872.00
2022-11-05T09:18:21.634Z,968.00
2022-11-05T09:19:21.621Z,1153.00
2022-11-05T09:20:21.605Z,906.00
2022-11-05T09:21:21.598Z,922.00
2022-11-05T09:22:21.601Z,872.00
2022-11-05T09:23:21.579Z,951.00
2022-11-05T09:24:21.571Z,997.00
2022-11-05T09:25:21.551Z,947.00
2022-11-05T09:26:21.549Z,820.00
2022-11-05T09:27:21.547Z,806.00
2022-11-05T09:28:21.553Z,703.00
2022-11-05T09:29:21.514Z,652.00
2022-11-05T09:30:21.498Z,650.00
2022-11-05T09:31:21.492Z,541.00
2022-11-05T09:32:21.477Z,376.00
2022-11-05T09:33:21.480Z,284.00
2022-11-05T09:34:21.455Z,330.00
2022-11-05T09:35:21.480Z,352.00
2022-11-05T09:36:21.435Z,381.00
2022-11-05T09:37:21.423Z,374.00
2022-11-05T09:38:21.424Z,308.00
2022-11-05T09:39:21.429Z,247.00
2022-11-05T09:40:21.415Z,257.00
2022-11-05T09:41:21.396Z,276.00
2022-11-05T09:42:21.372Z,303.00
2022-11-05T09:43:21.365Z,337.00
2022-11-05T09:44:21.346Z,372.00
2022-11-05T09:45:21.362Z,417.00
2022-11-05T09:46:21.328Z,472.00
2022-11-05T09:47:21.316Z,533.00
2022-11-05T09:48:21.304Z,598.00
2022-11-05T09:49:21.314Z,654.00
2022-11-05T09:50:21.286Z,743.00
2022-11-05T09:51:24.049Z,919.00
2022-11-05T09:52:21.262Z,1037.00
2022-11-05T09:53:21.258Z,1002.00
2022-11-05T09:54:21.266Z,803.00
2022-11-05T09:55:21.234Z,648.00
2022-11-05T09:56:21.218Z,570.00
2022-11-05T09:57:21.212Z,562.00
2022-11-05T09:58:24.517Z,574.00
2022-11-05T09:59:21.196Z,590.00
2022-11-05T10:00:21.284Z,590.00
2022-11-05T10:01:21.288Z,579.00
2022-11-05T10:02:21.192Z,519.00
2022-11-05T10:03:21.146Z,475.00
2022-11-05T10:04:21.133Z,481.00
2022-11-05T10:05:21.147Z,445.00
2022-11-05T10:06:21.120Z,486.00
2022-11-05T10:07:21.105Z,539.00
2022-11-05T10:08:21.094Z,592.00
2022-11-05T10:09:21.089Z,582.00
2022-11-05T10:10:21.104Z,491.00
2022-11-05T10:11:21.075Z,422.00
2022-11-05T10:12:21.049Z,426.00
2022-11-05T10:13:21.046Z,472.00
2022-11-05T10:14:21.044Z,550.00
2022-11-05T10:15:21.019Z,555.00
2022-11-05T10:16:21.013Z,535.00
2022-11-05T10:17:21.005Z,559.00
2022-11-05T10:18:20.981Z,557.00
2022-11-05T10:19:20.989Z,552.00
2022-11-05T10:20:20.995Z,538.00
2022-11-05T10:21:37.720Z,498.00
2022-11-05T10:22:20.956Z,515.00
2022-11-05T10:23:20.945Z,548.00
2022-11-05T10:24:20.920Z,637.00
2022-11-05T10:25:20.913Z,705.00
2022-11-05T10:26:20.899Z,819.00
2022-11-05T10:27:20.912Z,973.00
2022-11-05T10:28:20.888Z,956.00
2022-11-05T10:29:20.870Z,665.00
2022-11-05T10:30:20.867Z,401.00
2022-11-05T10:31:20.868Z,345.00
2022-11-05T10:32:20.835Z,386.00
2022-11-05T10:33:20.834Z,423.00
2022-11-05T10:34:20.813Z,484.00
2022-11-05T10:35:20.807Z,463.00
2022-11-05T10:36:20.793Z,489.00
2022-11-05T10:37:20.785Z,648.00
2022-11-05T10:38:20.778Z,645.00
2022-11-05T10:39:20.768Z,579.00
2022-11-05T10:40:20.748Z,565.00
2022-11-05T10:41:20.747Z,501.00
2022-11-05T10:42:20.730Z,559.00
2022-11-05T10:43:20.810Z,618.00
2022-11-05T10:44:20.717Z,636.00
2022-11-05T10:45:20.737Z,627.00
2022-11-05T10:46:20.710Z,587.00
2022-11-05T10:47:20.708Z,479.00
2022-11-05T10:48:20.712Z,354.00
2022-11-05T10:49:20.736Z,388.00
2022-11-05T10:50:20.724Z,456.00
2022-11-05T10:51:20.711Z,543.00
2022-11-05T10:52:20.708Z,626.00
2022-11-05T10:53:20.725Z,701.00
2022-11-05T10:54:20.736Z,779.00
2022-11-05T10:55:20.720Z,896.00
2022-11-05T10:56:20.698Z,1309.00
2022-11-05T10:57:20.711Z,1238.00
2022-11-05T10:58:20.720Z,1062.00
2022-11-05T10:59:20.709Z,1002.00
2022-11-05T11:00:20.717Z,1077.00
2022-11-05T11:01:20.714Z,2806.00
2022-11-05T11:02:20.727Z,1156.00
2022-11-05T11:03:20.507Z,838.00
2022-11-05T11:04:20.495Z,1779.00
2022-11-05T11:05:20.485Z,1097.00
2022-11-05T11:06:20.488Z,1008.00
2022-11-05T11:07:20.474Z,610.00
2022-11-05T11:08:20.455Z,594.00
2022-11-05T11:09:20.449Z,551.00
2022-11-05T11:10:20.441Z,588.00
2022-11-05T11:11:20.425Z,645.00
2022-11-05T11:12:20.422Z,813.00
2022-11-05T11:13:20.403Z,1323.00
2022-11-05T11:14:20.397Z,785.00
2022-11-05T11:15:20.381Z,560.00
2022-11-05T11:16:20.380Z,467.00
2022-11-05T11:17:20.362Z,511.00
2022-11-05T11:18:20.347Z,568.00
2022-11-05T11:19:20.340Z,614.00
2022-11-05T11:20:20.359Z,655.00
2022-11-05T11:21:20.325Z,706.00
2022-11-05T11:22:20.312Z,773.00
2022-11-05T11:23:20.297Z,833.00
2022-11-05T11:24:20.282Z,939.00
2022-11-05T11:25:20.274Z,1143.00
2022-11-05T11:26:20.262Z,1373.00
2022-11-05T11:27:20.273Z,1511.00
2022-11-05T11:28:20.240Z,2186.00
2022-11-05T11:29:20.236Z,2193.00
2022-11-05T11:30:20.235Z,1429.00
2022-11-05T11:31:20.222Z,1165.00
2022-11-05T11:32:20.208Z,997.00
2022-11-05T11:33:20.205Z,847.00
2022-11-05T11:34:20.189Z,660.00
2022-11-05T11:35:20.172Z,615.00
2022-11-05T11:36:20.168Z,555.00
2022-11-05T11:37:20.159Z,492.00
2022-11-05T11:38:20.154Z,442.00
2022-11-05T11:39:20.135Z,478.00
2022-11-05T11:40:20.127Z,470.00
2022-11-05T11:41:20.108Z,474.00
2022-11-05T11:42:20.101Z,437.00
2022-11-05T11:43:20.099Z,369.00
2022-11-05T11:44:20.082Z,296.00
2022-11-05T11:45:20.069Z,310.00
2022-11-05T11:46:20.055Z,351.00
2022-11-05T11:47:20.064Z,282.00
2022-11-05T11:48:20.059Z,300.00
2022-11-05T11:49:20.025Z,352.00
2022-11-05T11:50:20.022Z,326.00
2022-11-05T11:51:20.006Z,343.00
2022-11-05T11:52:20.040Z,363.00
2022-11-05T11:53:19.985Z,361.00
2022-11-05T11:54:19.991Z,383.00
2022-11-05T11:55:20.257Z,408.00
2022-11-05T11:56:19.979Z,434.00
2022-11-05T11:57:19.962Z,458.00
2022-11-05T11:58:19.951Z,496.00
2022-11-05T11:59:19.923Z,604.00
2022-11-05T12:00:19.944Z,555.00
2022-11-05T12:01:19.930Z,617.00
2022-11-05T12:02:20.030Z,693.00
2022-11-05T12:03:20.375Z,747.00
2022-11-05T12:04:19.868Z,1053.00
2022-11-05T12:05:19.861Z,975.00
2022-11-05T12:06:19.859Z,766.00
2022-11-05T12:07:19.860Z,1738.00
2022-11-05T12:08:19.821Z,741.00
2022-11-05T12:09:19.816Z,1077.00
2022-11-05T12:10:19.807Z,780.00
2022-11-05T12:11:19.801Z,690.00
2022-11-05T12:12:19.785Z,602.00
2022-11-05T12:13:19.770Z,607.00
2022-11-05T12:14:19.764Z,663.00
2022-11-05T12:15:19.749Z,788.00
2022-11-05T12:16:19.770Z,653.00
2022-11-05T12:17:19.738Z,744.00
2022-11-05T12:18:19.741Z,1104.00
2022-11-05T12:19:19.729Z,3241.00
2022-11-05T12:20:19.709Z,2087.00
2022-11-05T12:21:40.726Z,1821.00
2022-11-05T12:22:19.731Z,1452.00
2022-11-05T12:23:19.666Z,1313.00
2022-11-05T12:24:19.656Z,991.00
2022-11-05T12:25:19.645Z,811.00
2022-11-05T12:26:19.635Z,629.00
2022-11-05T12:27:19.668Z,526.00
2022-11-05T12:28:19.620Z,670.00
2022-11-05T12:29:19.767Z,455.00
2022-11-05T12:30:19.596Z,439.00
2022-11-05T12:31:19.609Z,543.00
2022-11-05T12:32:19.653Z,551.00
2022-11-05T12:33:19.559Z,500.00
2022-11-05T12:34:19.568Z,561.00
2022-11-05T12:35:19.540Z,510.00
2022-11-05T12:36:19.528Z,430.00
2022-11-05T12:37:19.519Z,386.00
2022-11-05T12:38:19.516Z,423.00
2022-11-05T12:39:19.493Z,473.00
2022-11-05T12:40:19.493Z,537.00
2022-11-05T12:41:19.475Z,612.00
2022-11-05T12:42:19.464Z,577.00
2022-11-05T12:43:19.463Z,564.00
2022-11-05T12:44:19.446Z,642.00
2022-11-05T12:45:19.431Z,538.00
2022-11-05T12:46:19.429Z,550.00
2022-11-05T12:47:19.412Z,613.00
2022-11-05T12:48:23.357Z,832.00
2022-11-05T12:49:19.397Z,940.00
2022-11-05T12:50:19.384Z,893.00
2022-11-05T12:51:19.373Z,747.00
2022-11-05T12:52:19.363Z,576.00
2022-11-05T12:53:19.543Z,550.00
2022-11-05T12:54:19.357Z,644.00